createdAt,value
2023-05-01T00:00:50.166Z,98606.25
2023-05-01T00:03:29.180Z,98583.84
2023-05-01T00:06:08.285Z,98585.34
2023-05-01T00:08:36.032Z,98596.06
2023-05-01T00:11:12.876Z,98582.63
2023-05-01T00:13:50.587Z,98578.91
2023-05-01T00:16:23.261Z,98568.31
2023-05-01T00:18:57.425Z,98581.34
2023-05-01T00:21:30.462Z,98579.28
2023-05-01T00:24:00.050Z,98556.78
2023-05-01T00:26:34.594Z,98581.88
2023-05-01T00:29:16.205Z,98575.84
2023-05-01T00:31:53.986Z,98567.88
2023-05-01T00:34:29.075Z,98573.59
2023-05-01T00:37:02.978Z,98572.22
2023-05-01T00:39:44.689Z,98567.81
2023-05-01T00:42:15.039Z,98570.66
2023-05-01T00:44:46.604Z,98567.94
2023-05-01T00:47:17.249Z,98578.31
2023-05-01T00:50:00.274Z,98569.94
2023-05-01T00:52:45.986Z,98563.50
2023-05-01T00:55:17.703Z,98516.72
2023-05-01T00:57:46.923Z,98574.50
2023-05-01T01:00:19.339Z,98572.78
2023-05-01T01:03:01.825Z,98578.59
2023-05-01T01:05:44.917Z,98572.69
2023-05-01T01:08:44.111Z,98579.50
2023-05-01T01:11:28.034Z,98585.75
2023-05-01T01:14:21.236Z,98590.69
2023-05-01T01:17:02.904Z,98586.16
2023-05-01T01:20:51.896Z,98581.13
2023-05-01T01:23:50.886Z,98579.44
2023-05-01T01:26:34.728Z,98585.56
2023-05-01T01:29:45.206Z,98584.13
2023-05-01T01:33:04.815Z,98586.28
2023-05-01T01:35:46.540Z,98580.44
2023-05-01T01:38:41.813Z,98579.44
2023-05-01T01:41:29.996Z,98580.56
2023-05-01T01:44:33.461Z,98576.75
2023-05-01T01:47:11.914Z,98577.81
2023-05-01T01:49:49.589Z,98571.19
2023-05-01T01:52:22.324Z,98573.47
2023-05-01T01:55:01.577Z,98571.50
2023-05-01T02:00:21.608Z,98574.44
2023-05-01T02:02:55.815Z,98572.38
2023-05-01T02:05:28.084Z,98573.88
2023-05-01T02:07:59.769Z,98549.75
2023-05-01T02:10:30.933Z,98567.09
2023-05-01T02:13:02.742Z,98578.34
2023-05-01T02:15:36.238Z,98573.31
2023-05-01T02:18:27.690Z,98570.31
2023-05-01T02:21:05.486Z,98576.06
2023-05-01T02:23:39.852Z,98572.84
2023-05-01T02:26:12.830Z,98571.47
2023-05-01T02:28:49.228Z,98560.59
2023-05-01T02:31:19.052Z,98564.81
2023-05-01T02:33:54.730Z,98554.88
2023-05-01T02:36:24.178Z,98562.94
2023-05-01T02:39:00.307Z,98543.78
2023-05-01T02:41:47.177Z,98553.59
2023-05-01T02:44:23.338Z,98544.72
2023-05-01T02:47:14.101Z,98528.03
2023-05-01T02:49:56.580Z,98547.75
2023-05-01T02:52:41.509Z,98547.00
2023-05-01T02:55:28.184Z,98549.16
2023-05-01T02:58:03.655Z,98538.75
2023-05-01T03:00:38.825Z,98528.56
2023-05-01T03:03:16.243Z,98538.75
2023-05-01T03:05:51.210Z,98544.19
2023-05-01T03:08:23.244Z,98541.94
2023-05-01T03:10:54.396Z,98540.88
2023-05-01T03:13:31.048Z,98514.53
2023-05-01T03:16:04.485Z,98544.97
2023-05-01T03:18:32.772Z,98536.28
2023-05-01T03:21:00.953Z,98534.50
2023-05-01T03:23:29.094Z,98522.69
2023-05-01T03:26:04.794Z,98543.63
2023-05-01T03:28:35.346Z,98529.63
2023-05-01T03:31:10.368Z,98523.66
2023-05-01T03:33:41.093Z,98537.00
2023-05-01T03:36:24.749Z,98533.59
2023-05-01T03:39:07.399Z,98534.31
2023-05-01T03:42:03.257Z,98536.66
2023-05-01T03:44:46.460Z,98542.69
2023-05-01T03:47:20.469Z,98551.31
2023-05-01T03:49:50.950Z,98525.25
2023-05-01T03:52:21.292Z,98547.97
2023-05-01T03:54:51.436Z,98555.94
2023-05-01T03:57:30.475Z,98551.03
2023-05-01T04:02:51.829Z,98540.09
2023-05-01T04:05:25.126Z,98551.78
2023-05-01T04:08:08.012Z,98563.28
2023-05-01T04:10:38.639Z,98555.06
2023-05-01T04:13:15.467Z,98549.13
2023-05-01T04:15:47.555Z,98556.59
2023-05-01T04:18:18.748Z,98554.81
2023-05-01T04:20:49.102Z,98555.84
2023-05-01T04:23:22.134Z,98553.94
2023-05-01T04:25:54.654Z,98560.75
2023-05-01T04:28:31.405Z,98554.63
2023-05-01T04:31:07.053Z,98556.13
2023-05-01T04:33:37.660Z,98551.59
2023-05-01T04:36:12.441Z,98548.47
2023-05-01T04:38:43.749Z,98554.63
2023-05-01T04:41:16.715Z,98544.28
2023-05-01T04:43:49.490Z,98493.31
2023-05-01T04:46:22.225Z,98547.91
2023-05-01T04:48:54.399Z,98543.13
2023-05-01T04:51:25.896Z,98540.53
2023-05-01T04:53:56.668Z,98550.19
2023-05-01T04:56:28.214Z,98547.13
2023-05-01T04:59:01.477Z,98551.75
2023-05-01T05:01:40.595Z,98550.63
2023-05-01T05:04:12.012Z,98545.81
2023-05-01T05:06:43.246Z,98549.44
2023-05-01T05:09:20.154Z,98546.06
2023-05-01T05:11:52.071Z,98537.81
2023-05-01T05:14:23.141Z,98526.47
2023-05-01T05:17:10.756Z,98538.63
2023-05-01T05:19:44.504Z,98538.91
2023-05-01T05:22:20.592Z,98544.31
2023-05-01T05:25:21.163Z,98547.88
2023-05-01T05:27:51.286Z,98534.81
2023-05-01T05:30:23.026Z,98541.47
2023-05-01T05:32:55.232Z,98549.22
2023-05-01T05:35:31.682Z,98524.44
2023-05-01T05:38:13.624Z,98542.16
2023-05-01T05:40:47.321Z,98545.09
2023-05-01T05:43:19.134Z,98544.34
2023-05-01T05:48:36.976Z,98525.31
2023-05-01T05:51:32.944Z,98546.81
2023-05-01T05:54:04.044Z,98544.81
2023-05-01T05:56:37.194Z,98538.34
2023-05-01T05:59:11.632Z,98544.53
2023-05-01T06:01:42.813Z,98550.03
2023-05-01T06:04:18.696Z,98543.41
2023-05-01T06:06:56.269Z,98544.63
2023-05-01T06:09:28.657Z,98546.88
2023-05-01T06:12:06.395Z,98549.03
2023-05-01T06:14:38.653Z,98536.34
2023-05-01T06:17:21.718Z,98537.47
2023-05-01T06:19:56.118Z,98544.75
2023-05-01T06:22:25.267Z,98542.56
2023-05-01T06:25:04.665Z,98549.16
2023-05-01T06:27:34.641Z,98540.44
2023-05-01T06:30:02.855Z,98535.81
2023-05-01T06:32:34.389Z,98537.03
2023-05-01T06:35:13.324Z,98538.97
2023-05-01T06:37:41.361Z,98542.38
2023-05-01T06:40:14.543Z,98542.75
2023-05-01T06:42:46.545Z,98534.50
2023-05-01T06:45:16.699Z,98539.81
2023-05-01T06:47:56.764Z,98536.56
2023-05-01T06:50:31.380Z,98547.34
2023-05-01T06:53:03.566Z,98557.00
2023-05-01T06:55:35.832Z,98551.91
2023-05-01T06:58:12.697Z,98529.25
2023-05-01T07:00:53.942Z,98551.41
2023-05-01T07:03:30.130Z,98551.69
2023-05-01T07:05:59.463Z,98552.19
2023-05-01T07:08:28.849Z,98549.91
2023-05-01T07:11:00.935Z,98547.56
2023-05-01T07:13:37.740Z,98546.59
2023-05-01T07:16:08.832Z,98547.75
2023-05-01T07:18:38.079Z,98538.34
2023-05-01T07:21:18.264Z,98540.03
2023-05-01T07:23:52.318Z,98531.03
2023-05-01T07:26:28.758Z,98545.81
2023-05-01T07:29:03.771Z,98549.75
2023-05-01T07:31:35.006Z,98544.63
2023-05-01T07:34:14.967Z,98537.31
2023-05-01T07:36:57.324Z,98532.09
2023-05-01T07:39:41.056Z,98526.88
2023-05-01T07:42:18.639Z,98514.59
2023-05-01T07:44:53.904Z,98519.66
2023-05-01T07:47:24.416Z,98511.97
2023-05-01T07:49:55.846Z,98522.94
2023-05-01T07:52:27.977Z,98523.28
2023-05-01T07:55:00.737Z,98537.84
2023-05-01T07:57:34.735Z,98535.66
2023-05-01T08:00:03.097Z,98529.63
2023-05-01T08:02:42.228Z,98534.88
2023-05-01T08:05:16.698Z,98545.19
2023-05-01T08:07:48.565Z,98548.44
2023-05-01T08:13:03.272Z,98543.31
2023-05-01T08:15:33.812Z,98540.34
2023-05-01T08:18:04.413Z,98533.84
2023-05-01T08:20:32.816Z,98540.72
2023-05-01T08:23:08.957Z,98534.16
2023-05-01T08:25:52.157Z,98547.88
2023-05-01T08:28:33.792Z,98514.03
2023-05-01T08:31:05.588Z,98540.47
2023-05-01T08:33:45.914Z,98536.38
2023-05-01T08:36:21.241Z,98546.59
2023-05-01T08:38:58.645Z,98541.03
2023-05-01T08:41:30.525Z,98531.88
2023-05-01T08:47:15.095Z,98531.34
2023-05-01T08:49:45.614Z,98533.00
2023-05-01T08:52:19.285Z,98524.44
2023-05-01T08:54:50.125Z,98529.63
2023-05-01T08:57:27.060Z,98528.84
2023-05-01T09:03:04.149Z,98527.91
2023-05-01T09:05:41.634Z,98515.91
2023-05-01T09:08:12.168Z,98525.22
2023-05-01T09:10:53.250Z,98527.25
2023-05-01T09:13:23.299Z,98517.47
2023-05-01T09:16:02.514Z,98526.06
2023-05-01T09:18:31.803Z,98525.88
2023-05-01T09:21:02.413Z,98524.91
2023-05-01T09:23:40.904Z,98521.91
2023-05-01T09:26:09.993Z,98520.25
2023-05-01T09:28:52.090Z,98525.97
2023-05-01T09:31:28.730Z,98517.09
2023-05-01T09:34:05.110Z,98524.81
2023-05-01T09:36:40.378Z,98521.34
2023-05-01T09:39:17.971Z,98512.59
2023-05-01T09:41:56.621Z,98517.13
2023-05-01T09:44:39.321Z,98517.31
2023-05-01T09:47:11.291Z,98509.47
2023-05-01T09:50:03.810Z,98514.88
2023-05-01T09:52:34.290Z,98512.47
2023-05-01T09:55:23.556Z,98503.84
2023-05-01T09:57:58.949Z,98509.28
2023-05-01T10:00:30.292Z,98514.44
2023-05-01T10:03:02.434Z,98501.44
2023-05-01T10:05:46.222Z,98503.69
2023-05-01T10:08:16.678Z,98500.53
2023-05-01T10:10:47.227Z,98500.88
2023-05-01T10:13:26.818Z,98505.50
2023-05-01T10:15:58.077Z,98498.97
2023-05-01T10:18:33.428Z,98495.84
2023-05-01T10:21:14.053Z,98487.38
2023-05-01T10:23:50.501Z,98485.34
2023-05-01T10:26:21.657Z,98481.75
2023-05-01T10:29:05.638Z,98480.13
2023-05-01T10:31:36.192Z,98486.09
2023-05-01T10:34:21.063Z,98475.06
2023-05-01T10:37:07.222Z,98464.34
2023-05-01T10:39:47.235Z,98468.69
2023-05-01T10:42:20.967Z,98457.94
2023-05-01T10:44:51.828Z,98469.75
2023-05-01T10:47:32.165Z,98463.53
2023-05-01T10:50:26.193Z,98470.41
2023-05-01T10:53:14.184Z,98460.19
2023-05-01T10:55:50.260Z,98455.75
2023-05-01T10:58:41.238Z,98434.50
2023-05-01T11:01:34.371Z,98449.25
2023-05-01T11:04:27.153Z,98444.09
2023-05-01T11:07:13.635Z,98439.84
2023-05-01T11:10:02.520Z,98440.13
2023-05-01T11:12:56.967Z,98437.78
2023-05-01T11:15:39.540Z,98424.56
2023-05-01T11:18:07.822Z,98425.56
2023-05-01T11:20:51.227Z,98426.03
2023-05-01T11:23:25.750Z,98417.78
2023-05-01T11:26:13.297Z,98419.63
2023-05-01T11:28:52.114Z,98415.97
2023-05-01T11:31:23.513Z,98365.53
2023-05-01T11:34:03.942Z,98407.41
2023-05-01T11:36:57.017Z,98403.88
2023-05-01T11:39:27.044Z,98397.22
2023-05-01T11:42:15.448Z,98392.16
2023-05-01T11:44:52.145Z,98390.25
2023-05-01T11:47:41.521Z,98392.56
2023-05-01T11:50:13.113Z,98388.19
2023-05-01T11:52:55.987Z,98393.38
2023-05-01T11:55:34.709Z,98385.84
2023-05-01T11:58:04.999Z,98378.38
2023-05-01T12:00:49.161Z,98377.38
2023-05-01T12:03:25.888Z,98378.31
2023-05-01T12:05:57.789Z,98376.63
2023-05-01T12:08:33.731Z,98369.81
2023-05-01T12:11:03.983Z,98372.75
2023-05-01T12:13:32.493Z,98372.13
2023-05-01T12:16:01.879Z,98365.59
2023-05-01T12:18:33.380Z,98369.66
2023-05-01T12:21:11.499Z,98363.13
2023-05-01T12:23:44.609Z,98363.03
2023-05-01T12:26:26.811Z,98358.66
2023-05-01T12:29:04.716Z,98292.94
2023-05-01T12:31:39.541Z,98353.66
2023-05-01T12:34:20.498Z,98348.00
2023-05-01T12:36:59.982Z,98356.19
2023-05-01T12:39:43.407Z,98343.81
2023-05-01T12:42:22.682Z,98342.41
2023-05-01T12:45:02.806Z,98339.78
2023-05-01T12:47:56.704Z,98343.28
2023-05-01T12:50:29.231Z,98342.19
2023-05-01T12:52:59.503Z,98332.72
2023-05-01T12:55:30.715Z,98328.75
2023-05-01T12:58:04.045Z,98333.44
2023-05-01T13:00:51.893Z,98331.56
2023-05-01T13:03:33.905Z,98324.91
2023-05-01T13:06:05.890Z,98325.81
2023-05-01T13:08:41.539Z,98331.63
2023-05-01T13:11:19.453Z,98325.41
2023-05-01T13:13:50.689Z,98326.06
2023-05-01T13:16:21.311Z,98321.28
2023-05-01T13:19:01.594Z,98325.44
2023-05-01T13:21:29.367Z,98315.84
2023-05-01T13:24:12.503Z,98314.22
2023-05-01T13:26:45.393Z,98307.56
2023-05-01T13:29:17.375Z,98299.53
2023-05-01T13:31:49.546Z,98304.94
2023-05-01T13:34:31.286Z,98297.47
2023-05-01T13:37:04.271Z,98288.34
2023-05-01T13:39:48.268Z,98279.78
2023-05-01T13:42:27.486Z,98281.03
2023-05-01T13:45:08.953Z,98283.78
2023-05-01T13:47:50.747Z,98283.41
2023-05-01T13:50:24.320Z,98276.94
2023-05-01T13:52:55.093Z,98283.16
2023-05-01T13:55:33.091Z,98279.06
2023-05-01T13:58:12.366Z,98275.31
2023-05-01T14:00:44.081Z,98275.91
2023-05-01T14:06:12.123Z,98272.19
2023-05-01T14:08:46.589Z,98270.09
2023-05-01T14:11:18.128Z,98264.72
2023-05-01T14:13:49.875Z,98252.97
2023-05-01T14:16:33.396Z,98276.00
2023-05-01T14:19:03.484Z,98272.63
2023-05-01T14:21:51.942Z,98239.88
2023-05-01T14:24:23.223Z,98269.88
2023-05-01T14:26:54.325Z,98270.56
2023-05-01T14:29:30.661Z,98268.94
2023-05-01T14:32:04.379Z,98252.16
2023-05-01T14:34:34.874Z,98266.34
2023-05-01T14:37:04.744Z,98258.56
2023-05-01T14:39:39.761Z,98267.25
2023-05-01T14:42:10.937Z,98208.31
2023-05-01T14:44:50.821Z,98261.22
2023-05-01T14:47:30.468Z,98267.06
2023-05-01T14:50:13.445Z,98259.84
2023-05-01T14:52:43.886Z,98252.06
2023-05-01T14:55:17.801Z,98249.66
2023-05-01T14:57:55.489Z,98248.66
2023-05-01T15:00:28.973Z,98252.53
2023-05-01T15:03:13.371Z,98250.56
2023-05-01T15:05:44.634Z,98252.09
2023-05-01T15:08:15.853Z,98258.06
2023-05-01T15:10:47.969Z,98254.25
2023-05-01T15:13:24.150Z,98241.28
2023-05-01T15:15:57.874Z,98244.06
2023-05-01T15:18:30.639Z,98242.00
2023-05-01T15:21:01.568Z,98235.97
2023-05-01T15:23:39.397Z,98233.59
2023-05-01T15:26:09.492Z,98184.53
2023-05-01T15:28:42.864Z,98226.50
2023-05-01T15:31:16.413Z,98247.88
2023-05-01T15:33:47.883Z,98247.22
2023-05-01T15:36:17.888Z,98236.09
2023-05-01T15:38:53.066Z,98248.06
2023-05-01T15:41:21.426Z,98239.97
2023-05-01T15:44:00.564Z,98246.50
2023-05-01T15:46:39.112Z,98248.94
2023-05-01T15:49:13.220Z,98239.97
2023-05-01T15:51:45.191Z,98242.03
2023-05-01T15:54:23.660Z,98248.69
2023-05-01T15:56:54.624Z,98246.97
2023-05-01T15:59:28.410Z,98243.81
2023-05-01T16:02:00.068Z,98244.44
2023-05-01T16:04:32.384Z,98247.44
2023-05-01T16:07:21.444Z,98248.63
2023-05-01T16:09:52.505Z,98231.75
2023-05-01T16:12:31.485Z,98248.88
2023-05-01T16:15:02.174Z,98246.31
2023-05-01T16:17:36.388Z,98251.09
2023-05-01T16:20:05.239Z,98252.94
2023-05-01T16:22:36.855Z,98243.88
2023-05-01T16:25:13.238Z,98241.22
2023-05-01T16:27:51.815Z,98247.50
2023-05-01T16:30:31.738Z,98249.94
2023-05-01T16:33:05.237Z,98251.09
2023-05-01T16:35:39.400Z,98249.47
2023-05-01T16:38:07.429Z,98244.25
2023-05-01T16:40:42.664Z,98240.53
2023-05-01T16:43:21.254Z,98244.75
2023-05-01T16:45:55.171Z,98251.94
2023-05-01T16:48:30.183Z,98247.63
2023-05-01T16:51:03.262Z,98253.78
2023-05-01T16:53:42.385Z,98258.59
2023-05-01T16:56:22.565Z,98251.28
2023-05-01T16:59:00.253Z,98251.25
2023-05-01T17:01:28.635Z,98265.09
2023-05-01T17:04:01.387Z,98245.84
2023-05-01T17:06:30.365Z,98259.31
2023-05-01T17:09:04.569Z,98256.28
2023-05-01T17:11:32.356Z,98265.34
2023-05-01T17:14:03.580Z,98255.56
2023-05-01T17:16:33.431Z,98238.47
2023-05-01T17:19:16.612Z,98256.47
2023-05-01T17:21:55.680Z,98258.44
2023-05-01T17:24:34.293Z,98263.19
2023-05-01T17:30:04.947Z,98254.50
2023-05-01T17:32:37.279Z,98253.81
2023-05-01T17:35:10.472Z,98264.38
2023-05-01T17:40:42.046Z,98260.59
2023-05-01T17:43:16.806Z,98245.38
2023-05-01T17:45:54.622Z,98250.34
2023-05-01T17:48:24.927Z,98270.22
2023-05-01T17:51:00.044Z,98264.38
2023-05-01T17:59:24.352Z,98284.53
2023-05-01T18:01:55.362Z,98283.84
2023-05-01T18:04:33.257Z,98293.13
2023-05-01T18:07:04.912Z,98269.44
2023-05-01T18:09:36.326Z,98287.19
2023-05-01T18:12:04.937Z,98298.09
2023-05-01T18:14:48.992Z,98297.75
2023-05-01T18:17:19.941Z,98289.81
2023-05-01T18:19:50.729Z,98289.22
2023-05-01T18:25:01.415Z,98282.22
2023-05-01T18:27:33.979Z,98288.63
2023-05-01T18:30:20.178Z,98283.59
2023-05-01T18:32:57.947Z,98289.09
2023-05-01T18:35:27.778Z,98285.34
2023-05-01T18:37:58.196Z,98290.41
2023-05-01T18:40:36.034Z,98281.91
2023-05-01T18:43:06.388Z,98289.88
2023-05-01T18:45:34.411Z,98289.84
2023-05-01T18:48:13.032Z,98296.69
2023-05-01T18:51:07.101Z,98292.47
2023-05-01T18:53:38.461Z,98296.03
2023-05-01T18:56:13.494Z,98286.97
2023-05-01T18:58:43.613Z,98299.38
2023-05-01T19:01:21.395Z,98290.84
2023-05-01T19:03:54.601Z,98301.59
2023-05-01T19:09:23.840Z,98301.44
2023-05-01T19:12:09.223Z,98285.50
2023-05-01T19:14:39.862Z,98301.00
2023-05-01T19:17:09.583Z,98276.88
2023-05-01T19:19:40.321Z,98315.59
2023-05-01T19:22:16.243Z,98309.16
2023-05-01T19:24:56.576Z,98318.63
2023-05-01T19:27:36.627Z,98302.25
2023-05-01T19:30:04.973Z,98307.50
2023-05-01T19:32:37.014Z,98321.41
2023-05-01T19:35:17.598Z,98313.59
2023-05-01T19:37:51.262Z,98321.94
2023-05-01T19:40:33.021Z,98305.41
2023-05-01T19:43:08.339Z,98298.75
2023-05-01T19:45:40.198Z,98324.19
2023-05-01T19:48:16.502Z,98334.78
2023-05-01T19:51:01.935Z,98312.13
2023-05-01T19:53:35.104Z,98328.44
2023-05-01T19:56:07.436Z,98331.88
2023-05-01T19:58:37.480Z,98325.00
2023-05-01T20:01:09.415Z,98316.81
2023-05-01T20:12:15.742Z,98327.31
2023-05-01T20:14:47.305Z,98322.88
2023-05-01T20:17:23.703Z,98330.13
2023-05-01T20:19:58.025Z,98332.09
2023-05-01T20:22:44.126Z,98328.16
2023-05-01T20:25:18.588Z,98344.34
2023-05-01T20:27:48.560Z,98347.44
2023-05-01T20:30:18.819Z,98343.34
2023-05-01T20:32:56.323Z,98347.44
2023-05-01T20:35:30.703Z,98329.13
2023-05-01T20:38:08.568Z,98362.63
2023-05-01T20:40:43.066Z,98359.34
2023-05-01T20:43:17.653Z,98357.25
2023-05-01T20:45:54.339Z,98363.13
2023-05-01T20:48:26.957Z,98365.41
2023-05-01T20:51:06.122Z,98349.09
2023-05-01T20:53:45.590Z,98364.59
2023-05-01T20:56:17.488Z,98359.06
2023-05-01T20:58:48.052Z,98371.47
2023-05-01T21:01:18.902Z,98368.03
2023-05-01T21:03:52.863Z,98368.84
2023-05-01T21:09:11.550Z,98383.69
2023-05-01T21:11:42.638Z,98383.53
2023-05-01T21:14:21.685Z,98396.41
2023-05-01T21:16:54.791Z,98394.97
2023-05-01T21:19:37.876Z,98393.16
2023-05-01T21:22:09.696Z,98388.06
2023-05-01T21:27:32.063Z,98397.69
2023-05-01T21:30:15.527Z,98399.47
2023-05-01T21:32:51.245Z,98392.63
2023-05-01T21:35:22.891Z,98395.09
2023-05-01T21:37:51.554Z,98396.53
2023-05-01T21:40:23.906Z,98400.63
2023-05-01T21:43:00.414Z,98392.09
2023-05-01T21:45:37.501Z,98403.25
2023-05-01T21:48:25.614Z,98401.25
2023-05-01T21:50:59.250Z,98404.53
2023-05-01T21:53:31.562Z,98403.72
2023-05-01T21:56:03.200Z,98411.22
2023-05-01T21:58:41.059Z,98402.09
2023-05-01T22:01:09.699Z,98406.19
2023-05-01T22:03:42.203Z,98394.88
2023-05-01T22:06:31.478Z,98391.78
2023-05-01T22:09:02.158Z,98405.00
2023-05-01T22:11:40.217Z,98416.91
2023-05-01T22:14:18.792Z,98412.31
2023-05-01T22:16:49.227Z,98422.13
2023-05-01T22:19:22.895Z,98419.53
2023-05-01T22:21:56.312Z,98416.75
2023-05-01T22:24:29.336Z,98410.53
2023-05-01T22:27:01.946Z,98418.22
2023-05-01T22:29:47.205Z,98431.25
2023-05-01T22:32:28.352Z,98417.06
2023-05-01T22:35:00.899Z,98429.44
2023-05-01T22:37:37.420Z,98428.66
2023-05-01T22:40:05.827Z,98416.16
2023-05-01T22:42:44.802Z,98416.34
2023-05-01T22:45:16.283Z,98433.53
2023-05-01T22:48:01.811Z,98415.53
2023-05-01T22:50:38.114Z,98431.06
2023-05-01T22:53:14.597Z,98425.38
2023-05-01T22:55:44.882Z,98422.13
2023-05-01T22:58:19.528Z,98399.19
2023-05-01T23:00:56.656Z,98421.22
2023-05-01T23:03:28.755Z,98407.84
2023-05-01T23:05:59.867Z,98413.22
2023-05-01T23:08:30.483Z,98424.22
2023-05-01T23:11:03.517Z,98413.22
2023-05-01T23:13:35.579Z,98419.13
2023-05-01T23:18:48.451Z,98405.63
2023-05-01T23:21:26.822Z,98421.47
2023-05-01T23:23:58.127Z,98420.97
2023-05-01T23:26:36.886Z,98421.78
2023-05-01T23:29:07.417Z,98414.13
2023-05-01T23:31:36.476Z,98415.25
2023-05-01T23:34:04.876Z,98417.03
2023-05-01T23:39:17.202Z,98399.00
2023-05-01T23:41:47.807Z,98404.59
2023-05-01T23:44:18.712Z,98411.28
2023-05-01T23:46:52.108Z,98410.63
2023-05-01T23:49:25.666Z,98405.91
2023-05-01T23:52:00.949Z,98385.47
2023-05-01T23:54:31.657Z,98401.16
2023-05-01T23:57:06.451Z,98396.53
2023-05-01T23:59:36.697Z,98382.50
